sensor_id;sensor_type;location;lat;lon;timestamp;P1;durP1;ratioP1;P2;durP2;ratioP2
12784;SDS011;6456;42.680;23.260;2023-03-15T00:01:19;12.50;;;9.57;;
12784;SDS011;6456;42.680;23.260;2023-03-15T00:03:48;15.83;;;9.83;;
12784;SDS011;6456;42.680;23.260;2023-03-15T00:06:15;11.63;;;8.97;;
12784;SDS011;6456;42.680;23.260;2023-03-15T00:08:43;14.97;;;9.53;;
12784;SDS011;6456;42.680;23.260;2023-03-15T00:11:13;12.30;;;9.17;;
12784;SDS011;6456;42.680;23.260;2023-03-15T00:13:41;11.03;;;8.03;;
12784;SDS011;6456;42.680;23.260;2023-03-15T00:16:08;14.30;;;9.20;;
12784;SDS011;6456;42.680;23.260;2023-03-15T00:18:35;11.57;;;7.57;;
12784;SDS011;6456;42.680;23.260;2023-03-15T00:21:02;12.07;;;8.00;;
12784;SDS011;6456;42.680;23.260;2023-03-15T00:23:29;10.03;;;7.40;;
12784;SDS011;6456;42.680;23.260;2023-03-15T00:25:57;10.77;;;7.77;;
12784;SDS011;6456;42.680;23.260;2023-03-15T00:28:24;10.50;;;7.37;;
12784;SDS011;6456;42.680;23.260;2023-03-15T00:31:01;11.23;;;8.00;;
12784;SDS011;6456;42.680;23.260;2023-03-15T00:33:29;9.70;;;7.50;;
12784;SDS011;6456;42.680;23.260;2023-03-15T00:36:00;10.30;;;7.00;;
12784;SDS011;6456;42.680;23.260;2023-03-15T00:38:29;10.10;;;7.33;;
12784;SDS011;6456;42.680;23.260;2023-03-15T00:40:57;10.37;;;7.23;;
12784;SDS011;6456;42.680;23.260;2023-03-15T00:43:24;10.83;;;7.87;;
12784;SDS011;6456;42.680;23.260;2023-03-15T00:45:51;10.73;;;7.13;;
12784;SDS011;6456;42.680;23.260;2023-03-15T00:48:18;11.57;;;7.77;;
12784;SDS011;6456;42.680;23.260;2023-03-15T00:50:45;10.53;;;7.97;;
12784;SDS011;6456;42.680;23.260;2023-03-15T00:53:14;9.93;;;7.60;;
12784;SDS011;6456;42.680;23.260;2023-03-15T00:55:41;10.60;;;7.60;;
12784;SDS011;6456;42.680;23.260;2023-03-15T00:58:09;11.07;;;7.60;;
12784;SDS011;6456;42.680;23.260;2023-03-15T01:00:36;10.17;;;6.83;;
12784;SDS011;6456;42.680;23.260;2023-03-15T01:03:02;10.10;;;7.57;;
12784;SDS011;6456;42.680;23.260;2023-03-15T01:05:29;9.47;;;7.30;;
12784;SDS011;6456;42.680;23.260;2023-03-15T01:07:57;14.03;;;7.83;;
12784;SDS011;6456;42.680;23.260;2023-03-15T01:10:24;10.07;;;7.53;;
12784;SDS011;6456;42.680;23.260;2023-03-15T01:12:51;11.30;;;8.30;;
12784;SDS011;6456;42.680;23.260;2023-03-15T01:15:20;10.27;;;8.13;;
12784;SDS011;6456;42.680;23.260;2023-03-15T01:17:47;11.07;;;7.30;;
12784;SDS011;6456;42.680;23.260;2023-03-15T01:20:14;14.90;;;8.73;;
12784;SDS011;6456;42.680;23.260;2023-03-15T01:22:41;12.77;;;8.87;;
12784;SDS011;6456;42.680;23.260;2023-03-15T01:25:08;10.57;;;8.07;;
12784;SDS011;6456;42.680;23.260;2023-03-15T01:27:35;15.23;;;8.00;;
12784;SDS011;6456;42.680;23.260;2023-03-15T01:30:03;10.00;;;7.80;;
12784;SDS011;6456;42.680;23.260;2023-03-15T01:32:32;10.93;;;8.10;;
12784;SDS011;6456;42.680;23.260;2023-03-15T01:34:59;9.70;;;7.87;;
12784;SDS011;6456;42.680;23.260;2023-03-15T01:37:26;11.10;;;7.97;;
12784;SDS011;6456;42.680;23.260;2023-03-15T01:39:53;12.03;;;8.87;;
12784;SDS011;6456;42.680;23.260;2023-03-15T01:42:20;11.70;;;8.53;;
12784;SDS011;6456;42.680;23.260;2023-03-15T01:44:49;12.53;;;8.07;;
12784;SDS011;6456;42.680;23.260;2023-03-15T01:47:17;12.57;;;8.10;;
12784;SDS011;6456;42.680;23.260;2023-03-15T01:49:47;13.93;;;8.80;;
12784;SDS011;6456;42.680;23.260;2023-03-15T01:52:18;13.40;;;9.73;;
12784;SDS011;6456;42.680;23.260;2023-03-15T01:54:50;14.97;;;9.47;;
12784;SDS011;6456;42.680;23.260;2023-03-15T01:57:20;13.03;;;8.97;;
12784;SDS011;6456;42.680;23.260;2023-03-15T01:59:51;15.10;;;9.10;;
12784;SDS011;6456;42.680;23.260;2023-03-15T02:02:20;11.83;;;9.10;;
12784;SDS011;6456;42.680;23.260;2023-03-15T02:04:53;14.73;;;9.37;;
12784;SDS011;6456;42.680;23.260;2023-03-15T02:07:23;13.30;;;8.60;;
12784;SDS011;6456;42.680;23.260;2023-03-15T02:09:53;12.47;;;9.00;;
12784;SDS011;6456;42.680;23.260;2023-03-15T02:12:27;13.63;;;9.37;;
12784;SDS011;6456;42.680;23.260;2023-03-15T02:14:57;14.57;;;9.43;;
12784;SDS011;6456;42.680;23.260;2023-03-15T02:17:27;12.67;;;9.53;;
12784;SDS011;6456;42.680;23.260;2023-03-15T02:20:02;13.27;;;9.93;;
12784;SDS011;6456;42.680;23.260;2023-03-15T02:22:43;11.83;;;9.63;;
12784;SDS011;6456;42.680;23.260;2023-03-15T02:25:17;15.57;;;10.63;;
12784;SDS011;6456;42.680;23.260;2023-03-15T02:27:50;15.23;;;9.93;;
12784;SDS011;6456;42.680;23.260;2023-03-15T02:30:18;14.97;;;10.33;;
12784;SDS011;6456;42.680;23.260;2023-03-15T02:32:46;15.03;;;10.23;;
12784;SDS011;6456;42.680;23.260;2023-03-15T02:35:21;16.23;;;11.20;;
12784;SDS011;6456;42.680;23.260;2023-03-15T02:37:49;14.77;;;9.97;;
12784;SDS011;6456;42.680;23.260;2023-03-15T02:40:19;19.93;;;10.20;;
12784;SDS011;6456;42.680;23.260;2023-03-15T02:42:50;13.93;;;9.57;;
12784;SDS011;6456;42.680;23.260;2023-03-15T02:45:21;14.00;;;10.37;;
12784;SDS011;6456;42.680;23.260;2023-03-15T02:47:49;12.47;;;10.30;;
12784;SDS011;6456;42.680;23.260;2023-03-15T02:50:16;9.57;;;7.83;;
12784;SDS011;6456;42.680;23.260;2023-03-15T02:52:43;14.00;;;9.13;;
12784;SDS011;6456;42.680;23.260;2023-03-15T02:55:10;9.63;;;7.77;;
12784;SDS011;6456;42.680;23.260;2023-03-15T02:57:37;11.33;;;8.50;;
12784;SDS011;6456;42.680;23.260;2023-03-15T03:00:06;11.37;;;8.50;;
12784;SDS011;6456;42.680;23.260;2023-03-15T03:02:38;11.10;;;7.97;;
12784;SDS011;6456;42.680;23.260;2023-03-15T03:05:05;9.70;;;7.37;;
12784;SDS011;6456;42.680;23.260;2023-03-15T03:07:32;10.73;;;7.60;;
12784;SDS011;6456;42.680;23.260;2023-03-15T03:10:00;12.80;;;8.20;;
12784;SDS011;6456;42.680;23.260;2023-03-15T03:12:28;12.23;;;8.60;;
12784;SDS011;6456;42.680;23.260;2023-03-15T03:14:55;10.00;;;7.73;;
12784;SDS011;6456;42.680;23.260;2023-03-15T03:17:23;11.10;;;7.83;;
12784;SDS011;6456;42.680;23.260;2023-03-15T03:19:50;10.97;;;7.93;;
12784;SDS011;6456;42.680;23.260;2023-03-15T03:22:17;11.67;;;7.67;;
12784;SDS011;6456;42.680;23.260;2023-03-15T03:24:44;12.67;;;8.33;;
12784;SDS011;6456;42.680;23.260;2023-03-15T03:27:12;9.03;;;7.10;;
12784;SDS011;6456;42.680;23.260;2023-03-15T03:29:40;10.80;;;7.67;;
12784;SDS011;6456;42.680;23.260;2023-03-15T03:32:07;10.23;;;8.40;;
12784;SDS011;6456;42.680;23.260;2023-03-15T03:34:36;12.83;;;8.23;;
12784;SDS011;6456;42.680;23.260;2023-03-15T03:37:03;11.37;;;7.93;;
12784;SDS011;6456;42.680;23.260;2023-03-15T03:39:30;12.27;;;8.33;;
12784;SDS011;6456;42.680;23.260;2023-03-15T03:41:57;11.80;;;8.10;;
12784;SDS011;6456;42.680;23.260;2023-03-15T03:44:24;15.03;;;8.93;;
12784;SDS011;6456;42.680;23.260;2023-03-15T03:46:51;15.80;;;8.80;;
12784;SDS011;6456;42.680;23.260;2023-03-15T03:49:18;16.03;;;8.47;;
12784;SDS011;6456;42.680;23.260;2023-03-15T03:51:48;12.03;;;8.50;;
12784;SDS011;6456;42.680;23.260;2023-03-15T03:54:15;14.07;;;8.60;;
12784;SDS011;6456;42.680;23.260;2023-03-15T03:56:45;12.23;;;9.17;;
12784;SDS011;6456;42.680;23.260;2023-03-15T03:59:12;12.77;;;9.07;;
12784;SDS011;6456;42.680;23.260;2023-03-15T04:01:39;10.37;;;8.33;;
12784;SDS011;6456;42.680;23.260;2023-03-15T04:04:07;11.97;;;8.67;;
12784;SDS011;6456;42.680;23.260;2023-03-15T04:06:34;11.17;;;8.80;;
12784;SDS011;6456;42.680;23.260;2023-03-15T04:09:02;12.83;;;8.80;;
12784;SDS011;6456;42.680;23.260;2023-03-15T04:11:29;14.30;;;9.07;;
12784;SDS011;6456;42.680;23.260;2023-03-15T04:13:58;12.60;;;9.00;;
12784;SDS011;6456;42.680;23.260;2023-03-15T04:16:25;12.43;;;9.03;;
12784;SDS011;6456;42.680;23.260;2023-03-15T04:18:53;11.10;;;8.60;;
12784;SDS011;6456;42.680;23.260;2023-03-15T04:21:20;13.63;;;9.73;;
12784;SDS011;6456;42.680;23.260;2023-03-15T04:23:47;14.23;;;9.70;;
12784;SDS011;6456;42.680;23.260;2023-03-15T04:26:16;14.17;;;9.27;;
12784;SDS011;6456;42.680;23.260;2023-03-15T04:28:43;15.27;;;8.93;;
12784;SDS011;6456;42.680;23.260;2023-03-15T04:31:10;12.77;;;8.80;;
12784;SDS011;6456;42.680;23.260;2023-03-15T04:33:38;13.97;;;9.87;;
12784;SDS011;6456;42.680;23.260;2023-03-15T04:36:05;13.73;;;9.77;;
12784;SDS011;6456;42.680;23.260;2023-03-15T04:38:33;15.80;;;9.50;;
12784;SDS011;6456;42.680;23.260;2023-03-15T04:41:00;12.37;;;8.87;;
12784;SDS011;6456;42.680;23.260;2023-03-15T04:43:36;14.50;;;9.27;;
12784;SDS011;6456;42.680;23.260;2023-03-15T04:46:03;15.93;;;10.17;;
12784;SDS011;6456;42.680;23.260;2023-03-15T04:48:30;13.77;;;9.53;;
12784;SDS011;6456;42.680;23.260;2023-03-15T04:50:57;16.17;;;9.53;;
12784;SDS011;6456;42.680;23.260;2023-03-15T04:53:24;13.30;;;9.90;;
12784;SDS011;6456;42.680;23.260;2023-03-15T04:55:51;16.23;;;9.30;;
12784;SDS011;6456;42.680;23.260;2023-03-15T04:58:18;18.63;;;9.60;;
12784;SDS011;6456;42.680;23.260;2023-03-15T05:00:47;12.10;;;9.20;;
12784;SDS011;6456;42.680;23.260;2023-03-15T05:03:15;14.13;;;9.40;;
12784;SDS011;6456;42.680;23.260;2023-03-15T05:05:43;16.00;;;9.93;;
12784;SDS011;6456;42.680;23.260;2023-03-15T05:08:10;16.70;;;10.30;;
12784;SDS011;6456;42.680;23.260;2023-03-15T05:10:37;28.97;;;11.20;;
12784;SDS011;6456;42.680;23.260;2023-03-15T05:13:07;19.13;;;11.10;;
12784;SDS011;6456;42.680;23.260;2023-03-15T05:15:37;26.80;;;11.13;;
12784;SDS011;6456;42.680;23.260;2023-03-15T05:18:06;20.40;;;11.97;;
12784;SDS011;6456;42.680;23.260;2023-03-15T05:20:33;20.77;;;13.23;;
12784;SDS011;6456;42.680;23.260;2023-03-15T05:23:00;23.73;;;13.60;;
12784;SDS011;6456;42.680;23.260;2023-03-15T05:25:28;25.77;;;14.47;;
12784;SDS011;6456;42.680;23.260;2023-03-15T05:27:55;23.77;;;13.60;;
12784;SDS011;6456;42.680;23.260;2023-03-15T05:30:22;26.37;;;13.53;;
12784;SDS011;6456;42.680;23.260;2023-03-15T05:32:49;20.13;;;13.23;;
12784;SDS011;6456;42.680;23.260;2023-03-15T05:38:39;24.83;;;13.00;;
12784;SDS011;6456;42.680;23.260;2023-03-15T05:41:06;18.53;;;12.47;;
12784;SDS011;6456;42.680;23.260;2023-03-15T05:43:33;20.50;;;13.40;;
12784;SDS011;6456;42.680;23.260;2023-03-15T05:46:00;30.43;;;13.10;;
12784;SDS011;6456;42.680;23.260;2023-03-15T05:48:27;24.47;;;12.57;;
12784;SDS011;6456;42.680;23.260;2023-03-15T05:50:54;21.60;;;11.93;;
12784;SDS011;6456;42.680;23.260;2023-03-15T05:53:20;23.07;;;12.70;;
12784;SDS011;6456;42.680;23.260;2023-03-15T05:55:49;20.73;;;12.77;;
12784;SDS011;6456;42.680;23.260;2023-03-15T05:58:15;25.10;;;13.00;;
12784;SDS011;6456;42.680;23.260;2023-03-15T06:00:45;23.03;;;13.47;;
12784;SDS011;6456;42.680;23.260;2023-03-15T06:03:13;45.00;;;14.33;;
12784;SDS011;6456;42.680;23.260;2023-03-15T06:05:40;30.67;;;13.83;;
12784;SDS011;6456;42.680;23.260;2023-03-15T06:08:07;35.67;;;13.73;;
12784;SDS011;6456;42.680;23.260;2023-03-15T06:10:35;30.83;;;13.63;;
12784;SDS011;6456;42.680;23.260;2023-03-15T06:13:03;27.73;;;12.27;;
12784;SDS011;6456;42.680;23.260;2023-03-15T06:15:30;21.80;;;10.80;;
12784;SDS011;6456;42.680;23.260;2023-03-15T06:17:57;19.03;;;10.30;;
12784;SDS011;6456;42.680;23.260;2023-03-15T06:20:24;19.33;;;9.03;;
12784;SDS011;6456;42.680;23.260;2023-03-15T06:22:51;14.00;;;7.20;;
12784;SDS011;6456;42.680;23.260;2023-03-15T06:25:18;15.13;;;7.67;;
12784;SDS011;6456;42.680;23.260;2023-03-15T06:27:45;15.73;;;6.73;;
12784;SDS011;6456;42.680;23.260;2023-03-15T06:30:13;14.53;;;7.10;;
12784;SDS011;6456;42.680;23.260;2023-03-15T06:32:41;18.97;;;7.33;;
12784;SDS011;6456;42.680;23.260;2023-03-15T06:35:08;10.33;;;5.70;;
12784;SDS011;6456;42.680;23.260;2023-03-15T06:37:35;11.40;;;5.90;;
12784;SDS011;6456;42.680;23.260;2023-03-15T06:40:02;11.30;;;5.80;;
12784;SDS011;6456;42.680;23.260;2023-03-15T06:42:31;7.13;;;4.97;;
12784;SDS011;6456;42.680;23.260;2023-03-15T06:44:58;11.60;;;5.73;;
12784;SDS011;6456;42.680;23.260;2023-03-15T06:47:27;9.43;;;5.37;;
12784;SDS011;6456;42.680;23.260;2023-03-15T06:49:54;10.77;;;5.27;;
12784;SDS011;6456;42.680;23.260;2023-03-15T06:52:21;11.23;;;5.83;;
12784;SDS011;6456;42.680;23.260;2023-03-15T06:54:48;6.77;;;4.97;;
12784;SDS011;6456;42.680;23.260;2023-03-15T06:57:15;16.07;;;5.83;;
12784;SDS011;6456;42.680;23.260;2023-03-15T06:59:42;8.90;;;5.97;;
12784;SDS011;6456;42.680;23.260;2023-03-15T07:02:10;9.40;;;5.10;;
12784;SDS011;6456;42.680;23.260;2023-03-15T07:04:40;8.47;;;5.10;;
12784;SDS011;6456;42.680;23.260;2023-03-15T07:07:08;5.37;;;4.53;;
12784;SDS011;6456;42.680;23.260;2023-03-15T07:09:35;7.60;;;4.70;;
12784;SDS011;6456;42.680;23.260;2023-03-15T07:12:02;5.50;;;4.37;;
12784;SDS011;6456;42.680;23.260;2023-03-15T07:14:29;7.23;;;5.10;;
12784;SDS011;6456;42.680;23.260;2023-03-15T07:16:56;7.73;;;4.63;;
12784;SDS011;6456;42.680;23.260;2023-03-15T07:19:23;7.43;;;5.57;;
12784;SDS011;6456;42.680;23.260;2023-03-15T07:21:51;8.90;;;5.43;;
12784;SDS011;6456;42.680;23.260;2023-03-15T07:24:19;9.67;;;5.87;;
12784;SDS011;6456;42.680;23.260;2023-03-15T07:26:46;11.87;;;6.03;;
12784;SDS011;6456;42.680;23.260;2023-03-15T07:29:13;6.90;;;6.20;;
12784;SDS011;6456;42.680;23.260;2023-03-15T07:31:45;8.43;;;5.80;;
12784;SDS011;6456;42.680;23.260;2023-03-15T07:34:12;8.27;;;6.60;;
12784;SDS011;6456;42.680;23.260;2023-03-15T07:36:39;9.77;;;6.53;;
12784;SDS011;6456;42.680;23.260;2023-03-15T07:39:09;12.30;;;6.97;;
12784;SDS011;6456;42.680;23.260;2023-03-15T07:41:36;13.73;;;7.03;;
12784;SDS011;6456;42.680;23.260;2023-03-15T07:44:03;9.77;;;6.40;;
12784;SDS011;6456;42.680;23.260;2023-03-15T07:46:30;7.60;;;6.70;;
12784;SDS011;6456;42.680;23.260;2023-03-15T07:48:57;12.07;;;8.37;;
12784;SDS011;6456;42.680;23.260;2023-03-15T07:51:24;14.03;;;9.97;;
12784;SDS011;6456;42.680;23.260;2023-03-15T07:53:51;11.90;;;8.43;;
12784;SDS011;6456;42.680;23.260;2023-03-15T07:56:19;10.47;;;7.50;;
12784;SDS011;6456;42.680;23.260;2023-03-15T07:58:46;12.53;;;8.40;;
12784;SDS011;6456;42.680;23.260;2023-03-15T08:01:13;8.83;;;6.00;;
12784;SDS011;6456;42.680;23.260;2023-03-15T08:03:40;13.33;;;6.67;;
12784;SDS011;6456;42.680;23.260;2023-03-15T08:06:07;11.70;;;6.73;;
12784;SDS011;6456;42.680;23.260;2023-03-15T08:08:33;8.37;;;5.07;;
12784;SDS011;6456;42.680;23.260;2023-03-15T08:11:00;8.43;;;5.37;;
12784;SDS011;6456;42.680;23.260;2023-03-15T08:13:28;9.30;;;6.20;;
12784;SDS011;6456;42.680;23.260;2023-03-15T08:15:55;8.77;;;6.20;;
12784;SDS011;6456;42.680;23.260;2023-03-15T08:18:22;7.43;;;5.13;;
12784;SDS011;6456;42.680;23.260;2023-03-15T08:20:49;10.23;;;5.93;;
12784;SDS011;6456;42.680;23.260;2023-03-15T08:23:16;9.47;;;5.60;;
12784;SDS011;6456;42.680;23.260;2023-03-15T08:25:43;7.93;;;5.57;;
12784;SDS011;6456;42.680;23.260;2023-03-15T08:28:10;8.40;;;4.90;;
12784;SDS011;6456;42.680;23.260;2023-03-15T08:30:38;12.17;;;6.10;;
12784;SDS011;6456;42.680;23.260;2023-03-15T08:33:05;8.80;;;5.73;;
12784;SDS011;6456;42.680;23.260;2023-03-15T08:35:33;6.07;;;4.80;;
12784;SDS011;6456;42.680;23.260;2023-03-15T08:38:00;7.23;;;4.67;;
12784;SDS011;6456;42.680;23.260;2023-03-15T08:40:27;8.10;;;5.13;;
12784;SDS011;6456;42.680;23.260;2023-03-15T08:42:56;13.33;;;5.27;;
12784;SDS011;6456;42.680;23.260;2023-03-15T08:45:24;8.40;;;4.97;;
12784;SDS011;6456;42.680;23.260;2023-03-15T08:47:56;10.97;;;5.00;;
12784;SDS011;6456;42.680;23.260;2023-03-15T08:50:24;10.00;;;5.27;;
12784;SDS011;6456;42.680;23.260;2023-03-15T08:52:52;7.57;;;5.53;;
12784;SDS011;6456;42.680;23.260;2023-03-15T08:55:19;12.93;;;6.13;;
12784;SDS011;6456;42.680;23.260;2023-03-15T08:57:46;9.80;;;6.33;;
12784;SDS011;6456;42.680;23.260;2023-03-15T09:00:13;7.30;;;5.77;;
12784;SDS011;6456;42.680;23.260;2023-03-15T09:02:44;11.27;;;5.40;;
12784;SDS011;6456;42.680;23.260;2023-03-15T09:05:14;10.20;;;5.30;;
12784;SDS011;6456;42.680;23.260;2023-03-15T09:07:41;7.03;;;5.37;;
12784;SDS011;6456;42.680;23.260;2023-03-15T09:10:09;7.67;;;4.60;;
12784;SDS011;6456;42.680;23.260;2023-03-15T09:12:39;8.27;;;5.17;;
12784;SDS011;6456;42.680;23.260;2023-03-15T09:15:06;15.17;;;5.00;;
12784;SDS011;6456;42.680;23.260;2023-03-15T09:17:34;14.10;;;4.40;;
12784;SDS011;6456;42.680;23.260;2023-03-15T09:20:01;15.13;;;4.67;;
12784;SDS011;6456;42.680;23.260;2023-03-15T09:22:33;17.90;;;5.67;;
12784;SDS011;6456;42.680;23.260;2023-03-15T09:25:00;11.33;;;5.07;;
12784;SDS011;6456;42.680;23.260;2023-03-15T09:27:28;12.53;;;5.20;;
12784;SDS011;6456;42.680;23.260;2023-03-15T09:29:55;14.10;;;5.40;;
12784;SDS011;6456;42.680;23.260;2023-03-15T09:32:22;10.07;;;5.07;;
12784;SDS011;6456;42.680;23.260;2023-03-15T09:34:49;9.43;;;4.73;;
12784;SDS011;6456;42.680;23.260;2023-03-15T09:37:16;8.87;;;4.70;;
12784;SDS011;6456;42.680;23.260;2023-03-15T09:39:46;10.37;;;5.50;;
12784;SDS011;6456;42.680;23.260;2023-03-15T09:42:17;9.07;;;5.10;;
12784;SDS011;6456;42.680;23.260;2023-03-15T09:44:50;4.93;;;4.43;;
12784;SDS011;6456;42.680;23.260;2023-03-15T09:47:27;6.33;;;4.73;;
12784;SDS011;6456;42.680;23.260;2023-03-15T09:50:02;11.80;;;4.67;;
12784;SDS011;6456;42.680;23.260;2023-03-15T09:52:35;8.83;;;4.50;;
12784;SDS011;6456;42.680;23.260;2023-03-15T09:55:11;7.70;;;4.90;;
12784;SDS011;6456;42.680;23.260;2023-03-15T09:57:42;8.97;;;4.87;;
12784;SDS011;6456;42.680;23.260;2023-03-15T10:00:13;9.03;;;5.00;;
12784;SDS011;6456;42.680;23.260;2023-03-15T10:02:44;12.00;;;5.00;;
12784;SDS011;6456;42.680;23.260;2023-03-15T10:05:19;11.07;;;4.57;;
12784;SDS011;6456;42.680;23.260;2023-03-15T10:07:51;11.93;;;4.80;;
12784;SDS011;6456;42.680;23.260;2023-03-15T10:10:21;7.77;;;4.80;;
12784;SDS011;6456;42.680;23.260;2023-03-15T10:12:56;9.57;;;4.67;;
12784;SDS011;6456;42.680;23.260;2023-03-15T10:15:34;6.33;;;4.27;;
12784;SDS011;6456;42.680;23.260;2023-03-15T10:18:20;9.23;;;4.60;;
12784;SDS011;6456;42.680;23.260;2023-03-15T10:20:57;8.03;;;4.90;;
12784;SDS011;6456;42.680;23.260;2023-03-15T10:23:32;5.37;;;4.37;;
12784;SDS011;6456;42.680;23.260;2023-03-15T10:26:07;6.33;;;4.27;;
12784;SDS011;6456;42.680;23.260;2023-03-15T10:28:39;7.73;;;4.20;;
12784;SDS011;6456;42.680;23.260;2023-03-15T10:31:12;11.90;;;5.67;;
12784;SDS011;6456;42.680;23.260;2023-03-15T10:33:43;6.37;;;5.23;;
12784;SDS011;6456;42.680;23.260;2023-03-15T10:36:13;7.67;;;5.20;;
12784;SDS011;6456;42.680;23.260;2023-03-15T10:38:42;10.23;;;6.07;;
12784;SDS011;6456;42.680;23.260;2023-03-15T10:41:11;7.53;;;5.70;;
12784;SDS011;6456;42.680;23.260;2023-03-15T10:43:56;16.47;;;6.20;;
12784;SDS011;6456;42.680;23.260;2023-03-15T10:46:25;24.50;;;6.83;;
12784;SDS011;6456;42.680;23.260;2023-03-15T10:48:55;17.83;;;7.37;;
12784;SDS011;6456;42.680;23.260;2023-03-15T10:51:25;7.53;;;4.73;;
12784;SDS011;6456;42.680;23.260;2023-03-15T10:53:54;13.23;;;5.07;;
12784;SDS011;6456;42.680;23.260;2023-03-15T10:56:25;7.13;;;4.63;;
12784;SDS011;6456;42.680;23.260;2023-03-15T10:58:55;8.17;;;5.00;;
12784;SDS011;6456;42.680;23.260;2023-03-15T11:01:24;8.83;;;4.37;;
12784;SDS011;6456;42.680;23.260;2023-03-15T11:04:08;12.53;;;5.17;;
12784;SDS011;6456;42.680;23.260;2023-03-15T11:06:41;12.10;;;4.60;;
12784;SDS011;6456;42.680;23.260;2023-03-15T11:09:11;10.83;;;4.87;;
12784;SDS011;6456;42.680;23.260;2023-03-15T11:11:58;14.10;;;4.43;;
12784;SDS011;6456;42.680;23.260;2023-03-15T11:14:26;12.47;;;4.63;;
12784;SDS011;6456;42.680;23.260;2023-03-15T11:16:59;10.40;;;4.73;;
12784;SDS011;6456;42.680;23.260;2023-03-15T11:19:27;6.47;;;4.00;;
12784;SDS011;6456;42.680;23.260;2023-03-15T11:21:57;8.07;;;4.87;;
12784;SDS011;6456;42.680;23.260;2023-03-15T11:24:27;6.83;;;4.70;;
12784;SDS011;6456;42.680;23.260;2023-03-15T11:26:58;7.67;;;4.47;;
12784;SDS011;6456;42.680;23.260;2023-03-15T11:29:27;5.40;;;3.80;;
12784;SDS011;6456;42.680;23.260;2023-03-15T11:31:57;5.90;;;3.50;;
12784;SDS011;6456;42.680;23.260;2023-03-15T11:34:30;5.13;;;3.30;;
12784;SDS011;6456;42.680;23.260;2023-03-15T11:37:04;6.60;;;3.50;;
12784;SDS011;6456;42.680;23.260;2023-03-15T11:39:40;5.63;;;3.50;;
12784;SDS011;6456;42.680;23.260;2023-03-15T11:42:15;5.90;;;3.30;;
12784;SDS011;6456;42.680;23.260;2023-03-15T11:44:47;7.87;;;3.70;;
12784;SDS011;6456;42.680;23.260;2023-03-15T11:47:22;5.13;;;3.10;;
12784;SDS011;6456;42.680;23.260;2023-03-15T11:49:56;3.30;;;2.87;;
12784;SDS011;6456;42.680;23.260;2023-03-15T11:52:24;5.07;;;2.90;;
12784;SDS011;6456;42.680;23.260;2023-03-15T11:54:54;6.77;;;2.60;;
12784;SDS011;6456;42.680;23.260;2023-03-15T11:57:41;3.80;;;3.10;;
12784;SDS011;6456;42.680;23.260;2023-03-15T12:03:32;4.47;;;3.50;;
12784;SDS011;6456;42.680;23.260;2023-03-15T12:06:05;5.30;;;3.43;;
12784;SDS011;6456;42.680;23.260;2023-03-15T12:08:41;6.37;;;3.60;;
12784;SDS011;6456;42.680;23.260;2023-03-15T12:11:10;5.27;;;3.23;;
12784;SDS011;6456;42.680;23.260;2023-03-15T12:13:41;8.60;;;4.83;;
12784;SDS011;6456;42.680;23.260;2023-03-15T12:16:19;4.70;;;4.10;;
12784;SDS011;6456;42.680;23.260;2023-03-15T12:18:47;5.57;;;3.57;;
12784;SDS011;6456;42.680;23.260;2023-03-15T12:24:03;8.33;;;4.50;;
12784;SDS011;6456;42.680;23.260;2023-03-15T12:26:42;5.73;;;4.30;;
12784;SDS011;6456;42.680;23.260;2023-03-15T12:29:15;6.90;;;4.30;;
12784;SDS011;6456;42.680;23.260;2023-03-15T12:31:50;5.87;;;3.47;;
12784;SDS011;6456;42.680;23.260;2023-03-15T12:34:26;6.27;;;3.87;;
12784;SDS011;6456;42.680;23.260;2023-03-15T12:36:57;3.83;;;2.93;;
12784;SDS011;6456;42.680;23.260;2023-03-15T12:39:41;6.43;;;3.33;;
12784;SDS011;6456;42.680;23.260;2023-03-15T12:42:13;3.60;;;3.07;;
12784;SDS011;6456;42.680;23.260;2023-03-15T12:51:01;5.03;;;3.00;;
12784;SDS011;6456;42.680;23.260;2023-03-15T12:53:34;3.03;;;2.50;;
12784;SDS011;6456;42.680;23.260;2023-03-15T12:56:18;6.53;;;2.60;;
12784;SDS011;6456;42.680;23.260;2023-03-15T12:58:57;8.33;;;2.40;;
12784;SDS011;6456;42.680;23.260;2023-03-15T13:01:30;3.63;;;2.40;;
12784;SDS011;6456;42.680;23.260;2023-03-15T13:04:00;5.50;;;2.30;;
12784;SDS011;6456;42.680;23.260;2023-03-15T13:06:44;2.83;;;2.20;;
12784;SDS011;6456;42.680;23.260;2023-03-15T13:09:29;3.97;;;2.03;;
12784;SDS011;6456;42.680;23.260;2023-03-15T13:12:10;4.43;;;2.77;;
12784;SDS011;6456;42.680;23.260;2023-03-15T13:14:43;3.80;;;1.90;;
12784;SDS011;6456;42.680;23.260;2023-03-15T13:17:20;4.37;;;1.90;;
12784;SDS011;6456;42.680;23.260;2023-03-15T13:20:02;3.07;;;2.50;;
12784;SDS011;6456;42.680;23.260;2023-03-15T13:22:56;3.37;;;2.40;;
12784;SDS011;6456;42.680;23.260;2023-03-15T13:25:36;3.43;;;2.07;;
12784;SDS011;6456;42.680;23.260;2023-03-15T13:28:10;6.50;;;3.33;;
12784;SDS011;6456;42.680;23.260;2023-03-15T13:30:47;4.60;;;2.33;;
12784;SDS011;6456;42.680;23.260;2023-03-15T13:33:21;5.33;;;3.30;;
12784;SDS011;6456;42.680;23.260;2023-03-15T13:35:53;5.50;;;3.17;;
12784;SDS011;6456;42.680;23.260;2023-03-15T13:38:30;7.23;;;3.60;;
12784;SDS011;6456;42.680;23.260;2023-03-15T13:40:59;8.30;;;3.40;;
12784;SDS011;6456;42.680;23.260;2023-03-15T13:43:28;3.00;;;2.20;;
12784;SDS011;6456;42.680;23.260;2023-03-15T13:45:57;5.47;;;2.20;;
12784;SDS011;6456;42.680;23.260;2023-03-15T13:48:25;4.17;;;2.47;;
12784;SDS011;6456;42.680;23.260;2023-03-15T13:51:01;9.03;;;2.90;;
12784;SDS011;6456;42.680;23.260;2023-03-15T13:53:33;4.23;;;2.73;;
12784;SDS011;6456;42.680;23.260;2023-03-15T13:56:04;4.03;;;2.60;;
12784;SDS011;6456;42.680;23.260;2023-03-15T13:58:32;3.73;;;2.80;;
12784;SDS011;6456;42.680;23.260;2023-03-15T14:01:03;4.90;;;3.10;;
12784;SDS011;6456;42.680;23.260;2023-03-15T14:03:33;5.73;;;2.57;;
12784;SDS011;6456;42.680;23.260;2023-03-15T14:06:00;9.13;;;2.70;;
12784;SDS011;6456;42.680;23.260;2023-03-15T14:08:28;3.00;;;2.23;;
12784;SDS011;6456;42.680;23.260;2023-03-15T14:10:59;3.13;;;2.53;;
12784;SDS011;6456;42.680;23.260;2023-03-15T14:13:28;3.87;;;2.30;;
12784;SDS011;6456;42.680;23.260;2023-03-15T14:15:57;7.83;;;3.30;;
12784;SDS011;6456;42.680;23.260;2023-03-15T14:18:33;3.90;;;2.60;;
12784;SDS011;6456;42.680;23.260;2023-03-15T14:21:01;4.40;;;2.93;;
12784;SDS011;6456;42.680;23.260;2023-03-15T14:23:34;3.97;;;2.90;;
12784;SDS011;6456;42.680;23.260;2023-03-15T14:26:10;3.27;;;2.67;;
12784;SDS011;6456;42.680;23.260;2023-03-15T14:28:39;3.63;;;2.47;;
12784;SDS011;6456;42.680;23.260;2023-03-15T14:31:11;3.77;;;2.60;;
12784;SDS011;6456;42.680;23.260;2023-03-15T14:33:50;6.83;;;2.90;;
12784;SDS011;6456;42.680;23.260;2023-03-15T14:36:23;7.23;;;2.83;;
12784;SDS011;6456;42.680;23.260;2023-03-15T14:38:55;4.67;;;2.80;;
12784;SDS011;6456;42.680;23.260;2023-03-15T14:41:29;4.07;;;2.73;;
12784;SDS011;6456;42.680;23.260;2023-03-15T14:43:58;5.07;;;3.07;;
12784;SDS011;6456;42.680;23.260;2023-03-15T14:46:27;3.90;;;3.07;;
12784;SDS011;6456;42.680;23.260;2023-03-15T14:48:55;7.23;;;3.10;;
12784;SDS011;6456;42.680;23.260;2023-03-15T14:51:22;3.50;;;2.80;;
12784;SDS011;6456;42.680;23.260;2023-03-15T14:53:50;6.73;;;3.17;;
12784;SDS011;6456;42.680;23.260;2023-03-15T14:56:20;4.03;;;2.90;;
12784;SDS011;6456;42.680;23.260;2023-03-15T14:58:49;5.13;;;2.97;;
12784;SDS011;6456;42.680;23.260;2023-03-15T15:01:18;4.17;;;3.33;;
12784;SDS011;6456;42.680;23.260;2023-03-15T15:03:49;7.93;;;3.03;;
12784;SDS011;6456;42.680;23.260;2023-03-15T15:06:18;3.33;;;2.83;;
12784;SDS011;6456;42.680;23.260;2023-03-15T15:08:46;3.97;;;3.20;;